Terminal Aerodrome Forecast
Issued by NWS

Home | Current Version | Previous Version | Text Only | Print | Product List | Glossary On
Versions: 1 2 3 4 5 6 7 8 9 10 11 12 13 14 15 16 17 18 19 20 21 22 23 24 25 26 27 28 29 30 31 32 33 34 35 36 37 38 39 40 41 42 43 44 45 46 47 48 49 50
000
FTUS44 KHGX 222324
TAFIAH
TAF
KIAH 222324Z 2300/2406 11008KT P6SM SCT023 BKN035
      TEMPO 2300/2304 SCT006 BKN012
     FM230400 11007KT P6SM SCT006 BKN012
     FM231500 14010KT P6SM VCSH SCT015 BKN025
     FM231800 14014G20KT P6SM VCTS SCT025 BKN035CB
     FM240100 14013KT P6SM VCSH SCT015 BKN025=

USA.gov is the U.S. government's official web portal to all federal, state and local government web resources and services.